createdAt,value
2023-04-21T00:03:41.970Z,19.60
2023-04-21T00:08:43.689Z,19.33
2023-04-21T00:13:45.319Z,21.35
2023-04-21T00:18:48.010Z,20.13
2023-04-21T00:23:50.133Z,19.45
2023-04-21T00:28:51.978Z,16.67
2023-04-21T00:33:54.134Z,22.38
2023-04-21T00:38:57.362Z,22.15
2023-04-21T00:44:09.457Z,23.90
2023-04-21T00:54:15.009Z,20.42
2023-04-21T00:59:18.187Z,13.30
2023-04-21T01:04:20.079Z,12.68
2023-04-21T01:09:22.064Z,15.90
2023-04-21T01:14:23.871Z,19.92
2023-04-21T01:19:28.633Z,20.90
2023-04-21T01:24:44.774Z,16.15
2023-04-21T01:29:49.806Z,20.38
2023-04-21T01:34:52.082Z,18.67
2023-04-21T01:39:55.618Z,19.83
2023-04-21T01:44:57.729Z,25.02
2023-04-21T01:49:59.602Z,19.15
2023-04-21T01:55:01.883Z,20.38
2023-04-21T02:00:04.960Z,20.50
2023-04-21T02:05:16.699Z,21.65
2023-04-21T02:10:18.647Z,20.48
2023-04-21T02:15:20.284Z,19.38
2023-04-21T02:20:21.967Z,19.90
2023-04-21T02:25:23.576Z,21.05
2023-04-21T02:30:25.188Z,18.50
2023-04-21T02:35:27.212Z,26.40
2023-04-21T02:40:29.012Z,23.13
2023-04-21T02:45:30.752Z,19.63
2023-04-21T02:50:32.388Z,21.95
2023-04-21T02:55:34.339Z,27.63
2023-04-21T03:00:37.786Z,19.05
2023-04-21T03:05:39.415Z,23.55
2023-04-21T03:10:41.605Z,16.80
2023-04-21T03:15:43.757Z,18.38
2023-04-21T03:20:45.456Z,18.48
2023-04-21T03:25:47.093Z,20.35
2023-04-21T03:30:48.708Z,19.92
2023-04-21T03:35:50.294Z,24.10
2023-04-21T03:40:51.880Z,22.83
2023-04-21T03:45:53.868Z,25.15
2023-04-21T03:50:55.741Z,18.27
2023-04-21T03:55:57.458Z,15.18
2023-04-21T04:00:59.076Z,16.08
2023-04-21T04:06:01.237Z,17.98
2023-04-21T04:11:03.094Z,18.27
2023-04-21T04:16:05.404Z,18.48
2023-04-21T04:21:07.692Z,21.50
2023-04-21T04:26:09.498Z,24.27
2023-04-21T04:31:11.277Z,19.77
2023-04-21T04:36:13.005Z,19.88
2023-04-21T04:41:15.843Z,19.35
2023-04-21T04:46:17.555Z,16.30
2023-04-21T04:51:19.136Z,25.38
2023-04-21T04:56:21.013Z,31.95
2023-04-21T05:01:25.965Z,24.23
2023-04-21T05:06:28.515Z,19.63
2023-04-21T05:11:30.216Z,19.42
2023-04-21T05:16:31.905Z,21.25
2023-04-21T05:21:33.732Z,21.13
2023-04-21T05:26:35.486Z,18.33
2023-04-21T05:31:39.019Z,18.05
2023-04-21T05:36:44.210Z,19.17
2023-04-21T05:41:45.932Z,21.63
2023-04-21T05:46:47.506Z,20.77
2023-04-21T05:51:49.160Z,19.25
2023-04-21T05:56:50.894Z,20.02
2023-04-21T06:01:52.497Z,21.15
2023-04-21T06:06:54.118Z,21.08
2023-04-21T06:11:56.949Z,21.00
2023-04-21T06:16:58.926Z,19.85
2023-04-21T06:22:00.510Z,23.40
2023-04-21T06:27:02.144Z,24.52
2023-04-21T06:32:04.071Z,22.88
2023-04-21T06:37:06.113Z,22.15
2023-04-21T06:42:07.827Z,19.23
2023-04-21T06:47:17.222Z,20.15
2023-04-21T06:52:20.208Z,21.08
2023-04-21T06:57:21.957Z,22.42
2023-04-21T07:02:23.786Z,30.38
2023-04-21T07:07:26.175Z,40.75
2023-04-21T07:12:27.873Z,36.47
2023-04-21T07:17:29.560Z,32.10
2023-04-21T07:22:31.566Z,27.38
2023-04-21T07:27:34.193Z,24.95
2023-04-21T07:32:37.576Z,22.73
2023-04-21T07:37:40.741Z,23.80
2023-04-21T07:42:42.372Z,20.88
2023-04-21T07:47:44.231Z,25.13
2023-04-21T07:52:46.039Z,18.80
2023-04-21T07:57:47.909Z,18.13
2023-04-21T08:02:49.619Z,19.67
2023-04-21T08:07:51.403Z,20.10
2023-04-21T08:12:53.052Z,22.00
2023-04-21T08:17:55.065Z,17.85
2023-04-21T08:22:57.951Z,15.80
2023-04-21T08:27:59.673Z,18.58
2023-04-21T08:33:01.398Z,17.77
2023-04-21T08:38:03.194Z,18.67
2023-04-21T08:43:08.719Z,12.65
2023-04-21T08:48:16.590Z,13.00
2023-04-21T08:53:18.260Z,12.98
2023-04-21T08:58:22.741Z,10.63
2023-04-21T09:03:27.048Z,15.90
2023-04-21T09:08:30.457Z,12.75
2023-04-21T09:13:34.289Z,14.30
2023-04-21T09:18:40.120Z,12.18
2023-04-21T09:23:43.675Z,16.30
2023-04-21T09:28:48.356Z,13.10
2023-04-21T09:34:01.153Z,15.43
2023-04-21T09:44:09.221Z,14.27
2023-04-21T09:49:13.879Z,10.18
2023-04-21T09:54:29.672Z,15.77
2023-04-21T09:59:37.029Z,14.50
2023-04-21T10:04:42.285Z,13.05
2023-04-21T10:09:57.618Z,12.70
2023-04-21T10:15:03.442Z,12.93
2023-04-21T10:20:07.072Z,15.40
2023-04-21T10:25:10.158Z,10.02
2023-04-21T10:30:29.138Z,12.23
2023-04-21T10:36:04.714Z,13.15
2023-04-21T10:41:31.052Z,9.95
2023-04-21T10:46:36.696Z,14.63
2023-04-21T10:52:00.169Z,8.57
2023-04-21T10:57:02.099Z,13.07
2023-04-21T11:02:05.168Z,13.10
2023-04-21T11:07:16.480Z,15.93
2023-04-21T11:12:18.918Z,12.48
2023-04-21T11:17:21.506Z,11.80
2023-04-21T11:22:25.217Z,7.78
2023-04-21T11:27:29.169Z,9.85
2023-04-21T11:32:31.101Z,11.10
2023-04-21T11:37:32.791Z,10.52
2023-04-21T11:42:34.647Z,17.35
2023-04-21T11:47:37.594Z,15.98
2023-04-21T11:52:39.694Z,17.05
2023-04-21T11:57:41.674Z,7.55
2023-04-21T12:02:43.812Z,8.32
2023-04-21T12:07:51.915Z,13.95
2023-04-21T12:12:56.329Z,13.98
2023-04-21T12:17:58.085Z,11.00
2023-04-21T12:23:01.038Z,8.95
2023-04-21T12:28:02.807Z,12.45
2023-04-21T12:33:04.711Z,12.90
2023-04-21T12:38:06.547Z,6.07
2023-04-21T12:43:08.312Z,7.28
2023-04-21T12:48:10.187Z,6.47
2023-04-21T12:53:11.928Z,7.43
2023-04-21T12:58:15.628Z,7.63
2023-04-21T13:03:17.424Z,11.30
2023-04-21T13:08:19.179Z,5.50
2023-04-21T13:13:20.860Z,6.95
2023-04-21T13:18:22.837Z,7.00
2023-04-21T13:23:24.495Z,12.98
2023-04-21T13:28:26.777Z,10.30
2023-04-21T13:33:28.545Z,8.65
2023-04-21T13:38:30.888Z,8.85
2023-04-21T13:43:32.612Z,6.57
2023-04-21T13:48:34.268Z,7.88
2023-04-21T13:53:36.211Z,7.88
2023-04-21T13:58:38.018Z,6.25
2023-04-21T14:03:39.964Z,7.30
2023-04-21T14:08:42.003Z,9.70
2023-04-21T14:13:59.546Z,4.85
2023-04-21T14:19:05.300Z,11.30
2023-04-21T14:24:07.580Z,7.60
2023-04-21T14:29:09.222Z,5.18
2023-04-21T14:34:11.061Z,8.73
2023-04-21T14:39:12.961Z,9.05
2023-04-21T14:44:15.747Z,11.05
2023-04-21T14:49:17.651Z,8.13
2023-04-21T14:54:19.231Z,4.88
2023-04-21T14:59:20.968Z,9.23
2023-04-21T15:04:22.916Z,5.80
2023-04-21T15:09:25.245Z,7.93
2023-04-21T15:14:26.998Z,8.98
2023-04-21T15:19:28.695Z,8.35
2023-04-21T15:24:30.523Z,10.80
2023-04-21T15:29:32.239Z,6.57
2023-04-21T15:34:34.051Z,9.38
2023-04-21T15:39:35.781Z,9.25
2023-04-21T15:44:39.102Z,5.72
2023-04-21T15:49:40.765Z,8.60
2023-04-21T15:54:46.020Z,8.57
2023-04-21T15:59:47.754Z,12.65
2023-04-21T16:04:49.709Z,10.48
2023-04-21T16:09:51.596Z,13.50
2023-04-21T16:14:59.633Z,11.52
2023-04-21T16:20:09.323Z,5.53
2023-04-21T16:25:13.817Z,4.88
2023-04-21T16:30:15.888Z,7.60
2023-04-21T16:35:17.682Z,14.75
2023-04-21T16:40:19.597Z,5.97
2023-04-21T16:45:21.416Z,6.53
2023-04-21T16:50:23.640Z,7.93
2023-04-21T16:55:25.343Z,10.23
2023-04-21T17:00:27.386Z,13.80
2023-04-21T17:05:30.463Z,7.95
2023-04-21T17:10:32.182Z,6.78
2023-04-21T17:15:34.216Z,4.10
2023-04-21T17:20:36.726Z,5.38
2023-04-21T17:25:38.714Z,5.45
2023-04-21T17:30:40.312Z,6.25
2023-04-21T17:35:55.864Z,8.77
2023-04-21T17:41:06.694Z,6.07
2023-04-21T17:46:08.581Z,8.10
2023-04-21T17:51:11.042Z,6.15
2023-04-21T17:56:14.573Z,7.38
2023-04-21T18:01:17.020Z,6.28
2023-04-21T18:06:18.851Z,5.97
2023-04-21T18:11:20.545Z,5.50
2023-04-21T18:16:22.489Z,5.60
2023-04-21T18:21:24.396Z,4.47
2023-04-21T18:26:26.653Z,8.30
2023-04-21T18:31:29.797Z,7.03
2023-04-21T18:36:33.458Z,5.10
2023-04-21T18:41:37.272Z,7.15
2023-04-21T18:46:38.968Z,5.22
2023-04-21T18:51:40.756Z,6.18
2023-04-21T18:56:42.418Z,6.50
2023-04-21T19:01:44.351Z,5.88
2023-04-21T19:06:46.198Z,6.88
2023-04-21T19:11:47.901Z,6.85
2023-04-21T19:16:51.831Z,11.00
2023-04-21T19:21:53.584Z,6.50
2023-04-21T19:26:55.867Z,8.43
2023-04-21T19:31:58.349Z,13.85
2023-04-21T19:37:00.469Z,5.55
2023-04-21T19:42:02.061Z,8.38
2023-04-21T19:47:03.784Z,5.63
2023-04-21T19:52:05.998Z,7.68
2023-04-21T19:57:07.698Z,6.22
2023-04-21T20:02:09.632Z,8.00
2023-04-21T20:07:11.517Z,5.68
2023-04-21T20:12:13.146Z,6.05
2023-04-21T20:17:14.727Z,9.25
2023-04-21T20:22:16.350Z,12.85
2023-04-21T20:27:18.493Z,10.70
2023-04-21T20:32:20.265Z,9.43
2023-04-21T20:37:23.385Z,6.68
2023-04-21T20:42:25.414Z,6.40
2023-04-21T20:47:27.031Z,9.20
2023-04-21T20:52:28.666Z,11.00
2023-04-21T20:57:30.707Z,7.50
2023-04-21T21:02:32.449Z,9.15
2023-04-21T21:07:34.290Z,14.18
2023-04-21T21:12:35.932Z,6.57
2023-04-21T21:17:37.690Z,6.35
2023-04-21T21:22:39.363Z,10.48
2023-04-21T21:27:41.047Z,13.70
2023-04-21T21:32:42.756Z,8.52
2023-04-21T21:37:44.469Z,6.80
2023-04-21T21:42:46.054Z,8.73
2023-04-21T21:47:47.756Z,8.07
2023-04-21T21:52:49.493Z,10.40
2023-04-21T21:57:51.221Z,9.32
2023-04-21T22:02:53.011Z,7.47
2023-04-21T22:07:56.806Z,9.23
2023-04-21T22:12:58.485Z,9.18
2023-04-21T22:18:00.304Z,9.65
2023-04-21T22:23:02.818Z,13.35
2023-04-21T22:28:04.750Z,11.55
2023-04-21T22:33:06.775Z,10.85
2023-04-21T22:38:08.473Z,11.55
2023-04-21T22:43:10.173Z,10.57
2023-04-21T22:48:14.085Z,13.07
2023-04-21T22:53:15.833Z,11.13
2023-04-21T22:58:17.481Z,10.80
2023-04-21T23:03:19.337Z,9.73
2023-04-21T23:08:21.130Z,11.15
2023-04-21T23:13:23.072Z,12.20
2023-04-21T23:18:24.762Z,9.00
2023-04-21T23:23:26.521Z,12.30
2023-04-21T23:28:28.172Z,11.50
2023-04-21T23:33:29.892Z,9.30
2023-04-21T23:38:31.716Z,12.30
2023-04-21T23:43:34.579Z,12.88
2023-04-21T23:48:36.506Z,10.60
2023-04-21T23:53:38.270Z,10.10
2023-04-21T23:58:39.885Z,9.60
